createdAt,value
2022-11-05T00:00:17.916Z,15.20
2022-11-05T00:03:05.535Z,14.40
2022-11-05T00:05:52.143Z,15.15
2022-11-05T00:08:43.953Z,16.95
2022-11-05T00:11:17.937Z,15.80
2022-11-05T00:14:04.686Z,14.98
2022-11-05T00:16:45.276Z,15.40
2022-11-05T00:19:16.835Z,16.45
2022-11-05T00:22:02.920Z,14.45
2022-11-05T00:24:49.425Z,13.93
2022-11-05T00:27:18.238Z,15.23
2022-11-05T00:29:47.078Z,14.98
2022-11-05T00:32:16.088Z,12.93
2022-11-05T00:34:46.307Z,12.13
2022-11-05T00:37:15.132Z,12.07
2022-11-05T00:39:44.610Z,12.38
2022-11-05T00:42:30.647Z,14.13
2022-11-05T00:45:02.611Z,14.63
2022-11-05T00:47:51.132Z,13.00
2022-11-05T00:50:23.092Z,11.73
2022-11-05T00:52:58.151Z,12.20
2022-11-05T00:55:30.175Z,12.63
2022-11-05T00:57:59.337Z,15.52
2022-11-05T01:00:29.923Z,10.93
2022-11-05T01:03:00.059Z,11.25
2022-11-05T01:05:32.921Z,11.98
2022-11-05T01:08:02.218Z,10.95
2022-11-05T01:10:31.189Z,13.20
2022-11-05T01:13:00.208Z,12.68
2022-11-05T01:15:29.622Z,13.07
2022-11-05T01:17:58.703Z,12.90
2022-11-05T01:20:28.074Z,12.75
2022-11-05T01:22:58.983Z,11.85
2022-11-05T01:25:27.857Z,11.48
2022-11-05T01:27:56.840Z,11.68
2022-11-05T01:30:26.190Z,13.02
2022-11-05T01:32:55.057Z,12.90
2022-11-05T01:35:24.085Z,15.15
2022-11-05T01:37:53.037Z,12.85
2022-11-05T01:40:24.908Z,12.40
2022-11-05T01:42:53.824Z,13.27
2022-11-05T01:45:25.493Z,14.90
2022-11-05T01:48:03.277Z,13.35
2022-11-05T01:50:37.435Z,11.32
2022-11-05T01:53:16.970Z,10.02
2022-11-05T01:55:52.285Z,13.77
2022-11-05T01:58:26.064Z,11.73
2022-11-05T02:00:57.925Z,13.52
2022-11-05T02:03:27.432Z,14.38
2022-11-05T02:05:58.541Z,13.35
2022-11-05T02:08:42.913Z,13.50
2022-11-05T02:11:15.457Z,12.10
2022-11-05T02:13:44.609Z,12.75
2022-11-05T02:16:21.128Z,12.60
2022-11-05T02:19:00.180Z,11.82
2022-11-05T02:22:05.236Z,11.85
2022-11-05T02:25:09.561Z,12.07
2022-11-05T02:28:07.004Z,11.35
2022-11-05T02:30:48.822Z,10.45
2022-11-05T02:33:32.442Z,12.10
2022-11-05T02:36:19.463Z,11.52
2022-11-05T02:38:59.728Z,11.70
2022-11-05T02:41:36.807Z,12.48
2022-11-05T02:44:16.203Z,12.43
2022-11-05T02:46:55.260Z,12.13
2022-11-05T02:49:40.360Z,11.18
2022-11-05T02:52:16.740Z,11.15
2022-11-05T02:54:51.232Z,11.80
2022-11-05T02:57:22.076Z,11.95
2022-11-05T02:59:50.984Z,11.48
2022-11-05T03:02:21.348Z,12.25
2022-11-05T03:04:50.304Z,12.88
2022-11-05T03:07:43.481Z,12.52
2022-11-05T03:10:40.503Z,13.07
2022-11-05T03:13:18.108Z,12.00
2022-11-05T03:15:54.848Z,17.30
2022-11-05T03:18:32.558Z,15.48
2022-11-05T03:21:06.807Z,21.85
2022-11-05T03:23:42.944Z,29.80
2022-11-05T03:26:17.642Z,18.20
2022-11-05T03:28:51.812Z,14.18
2022-11-05T03:31:23.666Z,12.40
2022-11-05T03:33:56.711Z,11.63
2022-11-05T03:36:30.618Z,10.77
2022-11-05T03:39:04.231Z,11.90
2022-11-05T03:41:35.059Z,11.48
2022-11-05T03:44:08.280Z,13.52
2022-11-05T03:46:42.892Z,10.35
2022-11-05T03:49:20.464Z,12.98
2022-11-05T03:51:54.672Z,12.85
2022-11-05T03:54:24.062Z,13.32
2022-11-05T03:57:02.285Z,11.20
2022-11-05T03:59:33.375Z,12.15
2022-11-05T04:02:04.974Z,14.23
2022-11-05T04:04:35.414Z,13.25
2022-11-05T04:07:22.041Z,11.98
2022-11-05T04:10:08.601Z,10.95
2022-11-05T04:12:54.627Z,12.30
2022-11-05T04:15:23.539Z,12.63
2022-11-05T04:17:51.504Z,13.50
2022-11-05T04:20:39.190Z,13.90
2022-11-05T04:23:25.796Z,14.82
2022-11-05T04:25:54.615Z,12.70
2022-11-05T04:28:43.454Z,13.27
2022-11-05T04:31:11.288Z,12.73
2022-11-05T04:33:41.061Z,14.00
2022-11-05T04:36:11.409Z,12.98
2022-11-05T04:38:40.202Z,14.90
2022-11-05T04:41:16.158Z,15.10
2022-11-05T04:43:45.654Z,12.70
2022-11-05T04:46:14.470Z,14.10
2022-11-05T04:48:43.230Z,12.48
2022-11-05T04:51:13.446Z,9.57
2022-11-05T04:53:42.309Z,11.65
2022-11-05T04:56:12.494Z,13.07
2022-11-05T04:58:41.406Z,14.57
2022-11-05T05:01:14.253Z,14.65
2022-11-05T05:03:43.397Z,14.25
2022-11-05T05:06:13.697Z,15.35
2022-11-05T05:08:42.630Z,14.18
2022-11-05T05:11:13.640Z,14.70
2022-11-05T05:13:42.461Z,18.45
2022-11-05T05:16:20.757Z,15.13
2022-11-05T05:18:50.540Z,12.27
2022-11-05T05:21:39.703Z,10.93
2022-11-05T05:24:10.629Z,11.55
2022-11-05T05:26:42.358Z,11.50
2022-11-05T05:29:12.833Z,13.55
2022-11-05T05:31:41.737Z,12.88
2022-11-05T05:34:12.768Z,16.02
2022-11-05T05:36:43.019Z,14.88
2022-11-05T05:39:11.935Z,16.25
2022-11-05T05:41:40.919Z,13.40
2022-11-05T05:44:09.895Z,14.80
2022-11-05T05:46:38.845Z,16.30
2022-11-05T05:49:12.485Z,15.48
2022-11-05T05:51:43.003Z,16.15
2022-11-05T05:54:13.096Z,23.40
2022-11-05T05:56:44.134Z,20.63
2022-11-05T05:59:13.044Z,15.32
2022-11-05T06:01:42.442Z,14.65
2022-11-05T06:04:11.557Z,15.55
2022-11-05T06:06:40.368Z,13.18
2022-11-05T06:09:10.593Z,10.65
2022-11-05T06:11:39.403Z,13.07
2022-11-05T06:14:11.183Z,12.65
2022-11-05T06:16:40.091Z,14.18
2022-11-05T06:19:09.401Z,10.07
2022-11-05T06:21:38.272Z,11.88
2022-11-05T06:24:07.919Z,11.73
2022-11-05T06:26:42.731Z,10.82
2022-11-05T06:29:11.607Z,13.65
2022-11-05T06:31:40.437Z,17.35
2022-11-05T06:34:09.299Z,12.52
2022-11-05T06:36:38.080Z,14.38
2022-11-05T06:39:10.673Z,12.43
2022-11-05T06:44:29.817Z,11.30
2022-11-05T06:46:58.707Z,12.40
2022-11-05T06:49:27.705Z,12.38
2022-11-05T06:51:56.560Z,13.73
2022-11-05T06:54:25.433Z,14.05
2022-11-05T06:56:56.220Z,13.85
2022-11-05T06:59:25.052Z,17.70
2022-11-05T07:01:54.218Z,17.98
2022-11-05T07:04:23.098Z,14.38
2022-11-05T07:06:51.974Z,12.73
2022-11-05T07:09:20.875Z,9.93
2022-11-05T07:11:49.716Z,9.13
2022-11-05T07:14:19.937Z,8.50
2022-11-05T07:16:48.889Z,9.95
2022-11-05T07:19:17.752Z,7.25
2022-11-05T07:21:48.531Z,7.55
2022-11-05T07:24:17.480Z,9.02
2022-11-05T07:26:46.308Z,9.10
2022-11-05T07:29:15.115Z,7.45
2022-11-05T07:31:47.038Z,8.07
2022-11-05T07:34:15.862Z,7.82
2022-11-05T07:36:44.704Z,8.38
2022-11-05T07:39:13.535Z,6.70
2022-11-05T07:41:42.464Z,6.20
2022-11-05T07:44:11.762Z,7.18
2022-11-05T07:46:40.699Z,9.38
2022-11-05T07:49:11.187Z,6.50
2022-11-05T07:51:40.036Z,7.43
2022-11-05T07:54:08.855Z,6.32
2022-11-05T07:56:37.785Z,5.63
2022-11-05T07:59:06.869Z,7.65
2022-11-05T08:01:35.832Z,7.30
2022-11-05T08:04:05.067Z,6.30
2022-11-05T08:06:35.300Z,8.00
2022-11-05T08:09:04.263Z,7.07
2022-11-05T08:11:35.144Z,7.28
2022-11-05T08:14:04.523Z,6.50
2022-11-05T08:16:33.368Z,8.07
2022-11-05T08:19:02.160Z,6.38
2022-11-05T08:21:30.988Z,7.10
2022-11-05T08:24:01.566Z,7.13
2022-11-05T08:26:30.465Z,6.45
2022-11-05T08:29:00.499Z,6.68
2022-11-05T08:31:31.142Z,8.50
2022-11-05T08:34:02.635Z,5.68
2022-11-05T08:36:31.728Z,7.05
2022-11-05T08:39:02.030Z,6.47
2022-11-05T08:41:30.856Z,5.22
2022-11-05T08:43:59.763Z,6.03
2022-11-05T08:46:28.577Z,8.13
2022-11-05T08:48:57.844Z,5.90
2022-11-05T08:51:26.680Z,7.75
2022-11-05T08:53:55.524Z,6.07
2022-11-05T08:56:25.780Z,5.57
2022-11-05T08:58:54.816Z,4.25
2022-11-05T09:01:23.747Z,4.45
2022-11-05T09:03:52.954Z,5.35
2022-11-05T09:06:21.977Z,4.25
2022-11-05T09:08:50.747Z,4.45
2022-11-05T09:11:20.160Z,5.13
2022-11-05T09:13:50.457Z,5.57
2022-11-05T09:16:24.279Z,3.80
2022-11-05T09:18:53.812Z,4.28
2022-11-05T09:21:22.690Z,4.10
2022-11-05T09:23:51.504Z,3.80
2022-11-05T09:26:20.415Z,3.88
2022-11-05T09:28:50.624Z,3.35
2022-11-05T09:31:19.592Z,5.25
2022-11-05T09:33:48.685Z,3.78
2022-11-05T09:36:17.556Z,3.42
2022-11-05T09:38:46.367Z,5.95
2022-11-05T09:41:21.753Z,3.45
2022-11-05T09:43:55.393Z,3.85
2022-11-05T09:46:26.830Z,2.75
2022-11-05T09:49:02.295Z,2.70
2022-11-05T09:51:32.337Z,3.45
2022-11-05T09:54:05.610Z,3.42
2022-11-05T09:56:37.254Z,2.80
2022-11-05T09:59:14.806Z,2.38
2022-11-05T10:01:44.878Z,2.85
2022-11-05T10:04:18.099Z,2.03
2022-11-05T10:06:50.392Z,1.92
2022-11-05T10:09:26.276Z,1.70
2022-11-05T10:11:59.148Z,2.13
2022-11-05T10:14:33.169Z,1.77
2022-11-05T10:17:09.289Z,1.77
2022-11-05T10:19:44.560Z,2.15
2022-11-05T10:24:47.229Z,2.53
2022-11-05T10:27:19.639Z,2.10
2022-11-05T10:29:50.545Z,1.35
2022-11-05T10:32:28.677Z,1.65
2022-11-05T10:35:00.330Z,1.73
2022-11-05T10:37:30.765Z,1.70
2022-11-05T10:40:00.135Z,2.20
2022-11-05T10:42:41.198Z,2.00
2022-11-05T10:45:21.382Z,1.33
2022-11-05T10:48:03.946Z,2.35
2022-11-05T10:50:33.482Z,6.97
2022-11-05T10:53:06.744Z,3.75
2022-11-05T10:55:37.567Z,2.17
2022-11-05T10:58:18.351Z,1.67
2022-11-05T11:01:03.977Z,0.90
2022-11-05T11:06:20.858Z,0.70
2022-11-05T11:08:51.348Z,0.80
2022-11-05T11:11:30.272Z,1.02
2022-11-05T11:14:07.800Z,1.17
2022-11-05T11:16:40.338Z,1.08
2022-11-05T11:19:26.223Z,1.10
2022-11-05T11:22:15.070Z,1.33
2022-11-05T11:24:45.457Z,1.17
2022-11-05T11:27:17.696Z,1.52
2022-11-05T11:29:50.991Z,1.13
2022-11-05T11:32:23.141Z,1.30
2022-11-05T11:34:55.077Z,0.98
2022-11-05T11:37:27.851Z,0.85
2022-11-05T11:40:01.224Z,1.45
2022-11-05T11:42:34.044Z,1.40
2022-11-05T11:45:07.070Z,1.35
2022-11-05T11:47:43.710Z,1.67
2022-11-05T11:50:35.384Z,1.00
2022-11-05T11:53:29.782Z,1.15
2022-11-05T11:56:04.867Z,0.85
2022-11-05T11:58:40.767Z,0.90
2022-11-05T12:01:43.335Z,0.85
2022-11-05T12:04:29.232Z,1.20
2022-11-05T12:07:09.699Z,0.50
2022-11-05T12:10:02.024Z,1.10
2022-11-05T12:12:42.911Z,1.60
2022-11-05T12:15:28.891Z,0.80
2022-11-05T12:18:02.979Z,1.10
2022-11-05T12:20:58.509Z,1.48
2022-11-05T12:23:52.566Z,1.55
2022-11-05T12:26:30.397Z,2.10
2022-11-05T12:29:18.903Z,1.52
2022-11-05T12:31:57.157Z,2.25
2022-11-05T12:34:40.137Z,3.17
2022-11-05T12:37:24.040Z,3.30
2022-11-05T12:40:07.309Z,2.33
2022-11-05T12:42:47.903Z,2.58
2022-11-05T12:45:28.666Z,2.38
2022-11-05T12:48:13.519Z,2.53
2022-11-05T12:50:46.428Z,2.27
2022-11-05T12:53:42.514Z,1.63
2022-11-05T12:58:45.998Z,1.92
2022-11-05T13:01:21.510Z,1.42
2022-11-05T13:03:56.053Z,2.35
2022-11-05T13:06:31.095Z,3.23
2022-11-05T13:09:04.367Z,3.33
2022-11-05T13:11:37.371Z,3.50
2022-11-05T13:14:12.767Z,4.57
2022-11-05T13:16:45.847Z,4.20
2022-11-05T13:19:20.298Z,4.40
2022-11-05T13:21:54.486Z,4.63
2022-11-05T13:24:27.501Z,4.15
2022-11-05T13:27:01.953Z,4.68
2022-11-05T13:29:35.702Z,5.10
2022-11-05T13:32:14.979Z,4.85
2022-11-05T13:34:44.639Z,4.90
2022-11-05T13:37:29.320Z,5.38
2022-11-05T13:40:03.344Z,5.38
2022-11-05T13:42:56.194Z,4.47
2022-11-05T13:46:05.813Z,3.95
2022-11-05T13:48:50.503Z,5.78
2022-11-05T13:51:46.428Z,5.05
2022-11-05T13:54:47.684Z,4.63
2022-11-05T13:57:34.697Z,4.28
2022-11-05T14:00:12.620Z,5.13
2022-11-05T14:02:44.675Z,5.70
2022-11-05T14:05:25.481Z,6.05
2022-11-05T14:07:56.194Z,6.32
2022-11-05T14:10:35.900Z,5.78
2022-11-05T14:13:18.277Z,6.78
2022-11-05T14:16:05.119Z,6.20
2022-11-05T14:18:56.309Z,5.25
2022-11-05T14:21:46.395Z,6.80
2022-11-05T14:24:39.963Z,6.63
2022-11-05T14:27:34.264Z,17.27
2022-11-05T14:30:44.054Z,15.15
2022-11-05T14:33:32.294Z,6.93
2022-11-05T14:36:36.310Z,6.50
2022-11-05T14:39:21.111Z,6.68
2022-11-05T14:41:59.066Z,6.37
2022-11-05T14:44:29.345Z,7.45
2022-11-05T14:47:03.396Z,7.40
2022-11-05T14:49:37.361Z,6.72
2022-11-05T14:52:09.187Z,6.90
2022-11-05T14:54:44.014Z,7.22
2022-11-05T14:57:15.606Z,5.70
2022-11-05T14:59:57.106Z,7.32
2022-11-05T15:02:32.623Z,5.90
2022-11-05T15:05:37.526Z,7.28
2022-11-05T15:08:32.987Z,8.15
2022-11-05T15:11:12.934Z,14.38
2022-11-05T15:13:52.012Z,13.90
2022-11-05T15:16:24.868Z,18.00
2022-11-05T15:18:57.479Z,16.48
2022-11-05T15:21:26.824Z,15.35
2022-11-05T15:23:57.871Z,12.02
2022-11-05T15:26:32.535Z,15.52
2022-11-05T15:29:03.239Z,12.38
2022-11-05T15:31:35.311Z,12.40
2022-11-05T15:34:19.532Z,15.02
2022-11-05T15:36:50.749Z,11.63
2022-11-05T15:39:32.202Z,10.43
2022-11-05T15:42:06.938Z,10.82
2022-11-05T15:44:40.730Z,10.35
2022-11-05T15:47:15.574Z,12.40
2022-11-05T15:49:48.832Z,14.40
2022-11-05T15:52:20.202Z,16.95
2022-11-05T15:55:08.516Z,25.33
2022-11-05T15:57:40.518Z,56.83
2022-11-05T16:00:18.891Z,38.95
2022-11-05T16:02:55.412Z,43.63
2022-11-05T16:05:27.500Z,44.33
2022-11-05T16:07:59.347Z,50.80
2022-11-05T16:10:31.138Z,52.25
2022-11-05T16:13:34.163Z,52.13
2022-11-05T16:16:06.028Z,52.58
2022-11-05T16:18:37.751Z,47.67
2022-11-05T16:21:09.865Z,45.85
2022-11-05T16:23:45.108Z,43.22
2022-11-05T16:29:29.190Z,47.05
2022-11-05T16:32:00.000Z,59.20
2022-11-05T16:34:33.759Z,54.70
2022-11-05T16:37:05.219Z,56.92
2022-11-05T16:39:34.415Z,63.47
2022-11-05T16:42:13.965Z,70.07
2022-11-05T16:44:42.806Z,56.40
2022-11-05T16:47:11.639Z,44.00
2022-11-05T16:49:40.506Z,42.00
2022-11-05T16:52:12.400Z,43.05
2022-11-05T16:54:41.579Z,40.03
2022-11-05T16:57:20.923Z,35.40
2022-11-05T16:59:49.808Z,32.40
2022-11-05T17:02:18.784Z,27.48
2022-11-05T17:04:47.710Z,27.17
2022-11-05T17:07:17.980Z,25.23
2022-11-05T17:09:46.810Z,22.02
2022-11-05T17:12:16.272Z,23.10
2022-11-05T17:14:45.125Z,23.50
2022-11-05T17:17:13.976Z,33.28
2022-11-05T17:19:47.944Z,38.67
2022-11-05T17:22:18.238Z,38.67
2022-11-05T17:24:47.100Z,38.53
2022-11-05T17:27:16.285Z,34.05
2022-11-05T17:29:45.154Z,37.42
2022-11-05T17:32:14.255Z,35.53
2022-11-05T17:34:43.073Z,33.70
2022-11-05T17:37:11.861Z,26.33
2022-11-05T17:39:42.080Z,25.85
2022-11-05T17:42:10.921Z,22.77
2022-11-05T17:44:39.776Z,27.92
2022-11-05T17:47:08.561Z,32.25
2022-11-05T17:49:37.624Z,31.48
2022-11-05T17:52:06.749Z,30.25
2022-11-05T17:54:35.549Z,34.80
2022-11-05T17:57:06.369Z,34.17
2022-11-05T17:59:35.265Z,37.03
2022-11-05T18:02:04.333Z,35.63
2022-11-05T18:04:33.420Z,45.00
2022-11-05T18:07:02.226Z,39.10
2022-11-05T18:09:31.040Z,37.42
2022-11-05T18:12:00.140Z,40.67
2022-11-05T18:14:31.254Z,43.85
2022-11-05T18:17:00.465Z,41.70
2022-11-05T18:19:30.771Z,38.10
2022-11-05T18:21:59.683Z,41.00
2022-11-05T18:24:28.511Z,34.03
2022-11-05T18:26:57.295Z,33.70
2022-11-05T18:29:26.325Z,31.13
2022-11-05T18:31:56.577Z,28.17
2022-11-05T18:34:25.499Z,26.60
2022-11-05T18:36:56.608Z,27.38
2022-11-05T18:39:25.808Z,28.60
2022-11-05T18:41:54.637Z,25.95
2022-11-05T18:44:24.828Z,26.60
2022-11-05T18:46:58.510Z,31.75
2022-11-05T18:49:29.414Z,33.33
2022-11-05T18:52:04.444Z,30.38
2022-11-05T18:54:34.163Z,30.23
2022-11-05T18:57:02.980Z,29.73
2022-11-05T18:59:38.294Z,33.10
2022-11-05T19:02:09.490Z,35.58
2022-11-05T19:04:50.582Z,31.30
2022-11-05T19:07:29.777Z,28.08
2022-11-05T19:09:58.636Z,29.50
2022-11-05T19:12:27.504Z,28.98
2022-11-05T19:15:01.909Z,30.13
2022-11-05T19:17:33.277Z,28.58
2022-11-05T19:20:04.488Z,25.60
2022-11-05T19:22:33.458Z,28.08
2022-11-05T19:25:02.345Z,27.67
2022-11-05T19:27:31.206Z,32.85
2022-11-05T19:30:00.020Z,33.63
2022-11-05T19:32:29.714Z,32.78
2022-11-05T19:34:58.521Z,36.70
2022-11-05T19:37:28.853Z,36.72
2022-11-05T19:39:57.698Z,35.35
2022-11-05T19:42:27.504Z,39.13
2022-11-05T19:44:56.967Z,34.03
2022-11-05T19:47:29.604Z,27.52
2022-11-05T19:49:58.451Z,17.88
2022-11-05T19:52:28.768Z,19.33
2022-11-05T19:54:57.636Z,18.95
2022-11-05T19:57:26.403Z,18.40
2022-11-05T19:59:55.850Z,18.67
2022-11-05T20:02:24.936Z,20.63
2022-11-05T20:04:53.915Z,29.75
2022-11-05T20:07:22.741Z,20.38
2022-11-05T20:09:52.949Z,16.95
2022-11-05T20:12:21.877Z,12.82
2022-11-05T20:14:50.752Z,13.38
2022-11-05T20:17:20.403Z,18.42
2022-11-05T20:19:49.400Z,15.00
2022-11-05T20:22:18.268Z,13.20
2022-11-05T20:24:47.181Z,13.45
2022-11-05T20:27:17.543Z,11.13
2022-11-05T20:29:46.433Z,9.20
2022-11-05T20:32:15.239Z,10.68
2022-11-05T20:34:44.635Z,12.13
2022-11-05T20:37:13.477Z,13.35
2022-11-05T20:39:42.482Z,14.38
2022-11-05T20:42:11.268Z,12.35
2022-11-05T20:44:41.482Z,11.95
2022-11-05T20:47:10.433Z,9.82
2022-11-05T20:49:39.270Z,10.88
2022-11-05T20:52:08.093Z,11.68
2022-11-05T20:54:36.942Z,10.73
2022-11-05T20:57:05.774Z,10.77
2022-11-05T20:59:34.613Z,10.35
2022-11-05T21:02:05.286Z,11.85
2022-11-05T21:04:34.258Z,9.25
2022-11-05T21:07:03.857Z,9.38
2022-11-05T21:09:32.997Z,7.90
2022-11-05T21:12:13.955Z,6.90
2022-11-05T21:14:44.523Z,11.25
2022-11-05T21:17:14.831Z,8.75
2022-11-05T21:19:43.844Z,10.63
2022-11-05T21:22:15.455Z,13.35
2022-11-05T21:24:44.715Z,11.25
2022-11-05T21:27:13.616Z,8.18
2022-11-05T21:29:42.457Z,8.32
2022-11-05T21:32:11.981Z,7.15
2022-11-05T21:34:42.409Z,9.23
2022-11-05T21:37:11.265Z,7.53
2022-11-05T21:39:40.168Z,9.18
2022-11-05T21:42:09.001Z,7.57
2022-11-05T21:44:37.840Z,9.60
2022-11-05T21:47:06.790Z,10.05
2022-11-05T21:49:36.360Z,8.98
2022-11-05T21:52:24.221Z,8.73
2022-11-05T21:55:10.254Z,7.32
2022-11-05T21:57:56.241Z,6.25
2022-11-05T22:00:25.426Z,8.07
2022-11-05T22:02:54.429Z,8.57
2022-11-05T22:05:23.372Z,9.10
2022-11-05T22:07:53.674Z,8.15
2022-11-05T22:10:22.772Z,8.50
2022-11-05T22:12:51.605Z,13.13
2022-11-05T22:15:20.603Z,15.02
2022-11-05T22:17:51.502Z,12.35
2022-11-05T22:20:20.349Z,13.45
2022-11-05T22:22:49.201Z,10.18
2022-11-05T22:25:19.759Z,9.00
2022-11-05T22:27:48.662Z,10.75
2022-11-05T22:30:17.726Z,10.85
2022-11-05T22:32:46.668Z,9.65
2022-11-05T22:35:15.467Z,10.57
2022-11-05T22:37:44.292Z,8.77
2022-11-05T22:40:13.326Z,10.32
2022-11-05T22:42:43.659Z,13.68
2022-11-05T22:45:12.606Z,13.52
2022-11-05T22:47:43.076Z,15.57
2022-11-05T22:50:11.923Z,11.02
2022-11-05T22:52:40.845Z,12.57
2022-11-05T22:55:10.552Z,11.38
2022-11-05T22:57:39.397Z,9.57
2022-11-05T23:00:18.336Z,7.95
2022-11-05T23:02:47.299Z,8.32
2022-11-05T23:05:16.934Z,11.13
2022-11-05T23:08:02.882Z,8.55
2022-11-05T23:10:49.418Z,6.45
2022-11-05T23:13:18.238Z,4.63
2022-11-05T23:16:08.354Z,4.00
2022-11-05T23:18:54.783Z,4.20
2022-11-05T23:21:41.121Z,3.58
2022-11-05T23:24:10.207Z,3.88
2022-11-05T23:26:52.395Z,3.65
2022-11-05T23:29:23.389Z,4.13
2022-11-05T23:32:11.452Z,3.17
2022-11-05T23:34:40.388Z,3.90
2022-11-05T23:37:26.889Z,3.28
2022-11-05T23:39:55.772Z,2.78
2022-11-05T23:42:42.308Z,3.35
2022-11-05T23:45:29.380Z,3.33
2022-11-05T23:48:17.839Z,2.97
2022-11-05T23:50:53.342Z,2.35
2022-11-05T23:53:22.276Z,2.20
2022-11-05T23:55:51.774Z,2.38
2022-11-05T23:58:20.923Z,2.47
